Hauptseite
METAR-TAF:

METAR-TAF

Flughäfen :

Flughafen Tunis

Tunis, Tunesien

Breite: 36-50N, Länge: 010-14E, Höhe: 3 m

Beobachtung

Neuester Wetterbericht von vor 28 Minuten, um 18:00 UTC
Wind 4 kt aus Südwest, variierte zwischen Süd und West
Temperatur 15°C
Luftfeuchtigkeit 72%
Luftdruck 1010 hPa
Sichtweite 10 km oder mehr
Aufgelockert bewölkt in der Höhe von 2600 ft

METAR: DTTA 201800Z 22004KT 190V260 9999 SCT026 15/10 Q1010

Zeit: 19:28 (18:28 UTC)

Prognose

Neuester Wetterbericht von vor 1 Stunde und 28 Minuten, um 17:00 UTC
Gültige Prognose vom 20 um 18 UTC bis 21 um 18 UTC
Wind 10 kt aus Südwest
Sichtweite 10 km oder mehr
Aufgelockert bewölkt in der Höhe von 2600 ft
Übergehend zu
vom 21 um 10 UTC bis 21 um 12 UTC
Wind 10 kt aus West/Nordwest

TAF: DTTA 201700Z 2018/2118 22010KT 9999 SCT026 BECMG 2110/2112 30010KT

Wetterbeobachtungen und Prognosen von mehr als 4000 Flughäfen (METAR und TAF Bericht).

Die verfügbaren Stationen werden durch gelbe und rote Markierungen auf der Karte dargestellt.

Führen Sie die Maus auf sie, um den Namen der Station zu sehen.

Darauf klicken, um die Beobachtung von Wetterbeobachtungen und Prognosen zu sehen.

Um die Karte zu ändern : klicken Sie auf den grünen Tasten mit einem schwarzen Kreuz Zum Vergrößern, auf den grünen Button mit einem Gedankenstrich zu verkleinern, oder auf die grünen Pfeile für benachbarte Karten.


METAR-TAF: